Terminal Aerodrome Forecast
Issued by NWS Paducah, KY

Home | Current Version | Previous Version | Text Only | Print | Product List | Glossary Off
Versions: 1 2 3 4 5 6 7 8 9 10 11 12 13 14 15 16 17 18 19

461
FTUS43 KPAH 081720
TAFEVV
TAF
KEVV 081720Z 0818/0918 27014G21KT 4SM -SHSN SCT020 OVC035
      TEMPO 0818/0822 2SM -SHSN OVC020
     FM090000 29013KT 5SM -SHSN OVC025
     FM090600 29012KT P6SM OVC025=

USA.gov is the U.S. government's official web portal to all federal, state and local government web resources and services.